LFBT/LDE METAR and TAF weather

Enter ICAO airport designator
Station Type Date Time Source
LFBT METAR 2022/12/04 05:00 UTC NOAA

LFBT 040500Z AUTO 15005KT 4000 R20/1400U BR VV/// M00/M01 Q1008 BECMG NSC


Station Type Date Time Source
LFBT Decoded METAR 2022/12/04 05:00 UTC NOAA

Tarbes Ossun Lourdes, France (LFBT) 43-11N 000-00W 363M
Dec 04, 2022 - 12:00 AM EST / 2022.12.04 0500 UTC
Wind: from the SSE (150 degrees) at 6 MPH (5 KT):0
Visibility: 2 mile(s):0
Sky conditions: obscured
Weather: mist
Temperature: 32 F (0 C)
Windchill: 26 F (-3 C):1
Dew Point: 30 F (-1 C)
Relative Humidity: 92%
Pressure (altimeter): 29.77 in. Hg (1008 hPa)
ob: LFBT 040500Z AUTO 15005KT 4000 R20/1400U BR VV/// M00/M01 Q1008 BECMG NSC
cycle: 5

Station Type Date Time Source
LFBT TAF 2022/12/04 03:21 UTC NOAA

TAF
AMD LFBT 040310Z 0403/0424 VRB03KT CAVOK
TEMPO 0403/0408 3000 BR PROB40
TEMPO 0403/0405 0400 FG VV///

Example: see airport list